New Mine, Texas
Current Conditions -  °F | °C
As of 12:15 PM on Wednesday 28 Jan 2015 (Local Time) from KOSA Reporting Station
Clear Clear  
Wind Chill: 76°   Ceiling: Unl
Heat Index: 76°   Visibility: 10mi
Dew Point: 44°   Wind: 17mph
Humidity: 32%   Direction: 180°S
Pressure: 30.13"   Gusts: 22mph
Location:  32.9352°N, 94.9553°W
Report Text: KOSA 281815Z AUTO 18015G19KT 10SM CLR 24/07 A3013 RMK AO1 T02430065
Loading
Personal Weather Stations






























Interactive Weather Map New forecast layout! Learn more

10-Day Weather Forecast

Advertisements
Track Severe Weather on mobile